Lanham, MD

1:19 AM EDT on March 30, 2015 (GMT -0400)
GreenSpring | | Change Station
CLOSE
Current Station
Personal Weather Station
Location: Greenbelt, MD
Elevation: 177 ft
Nearby Weather Stations

Elev 177 ft 38.98 °N, 76.87 °W | Updated 5 minutes ago

Overcast
Overcast
40.3 °F
Feels Like 39 °F
N
3.1
Wind Variable Wind from NW

Today
High -- | Low -- °F
--% Chance of Precip.
Yesterday
High -- | Low -- °F
Precip. -- in
6:55 AM 7:28 PM
Waxing Gibbous, 77% visible
Pressure 30.08 in
Visibility 10.0 miles
Clouds Scattered Clouds 6000 ft
Mostly Cloudy 7000 ft
Overcast 10000 ft
Windchill 39 °F
Dew Point 40 °F
Humidity 99%
Rainfall 0.00 in
Snow Depth Not available.
UV 0 out of 12
Pollen 8.50 out of 12
Air Quality Not available.
Flu Activity Not available.
METAR KCGS 300510Z AUTO 19005KT 10SM SCT060 BKN070 OVC100 06/M11 A3008 RMK AO1

More Conditions Fewer Conditions

Pressure 30.08 in
Visibility 10.0 miles
Clouds Scattered Clouds 6000 ft
Mostly Cloudy 7000 ft
Overcast 10000 ft
Windchill 39 °F
Dew Point 40 °F
Humidity 99%
Rainfall 0.00 in
Snow Depth Not available.
UV 0 out of 12
Pollen 8.50 out of 12
Air Quality Not available.
Flu Activity Not available.
METAR KCGS 300510Z AUTO 19005KT 10SM SCT060 BKN070 OVC100 06/M11 A3008 RMK AO1

More Conditions Fewer Conditions

Nowcast | as of 1:06 am EDT on March 30, 2015

gusty sleet showers moving east across Metro areas ... At 105 am EDT...an line of sleet extended from Germantown to near Bowling Green...and moving east at 40 mph. Winds of 30 mph are possible with this sleet. Locations impacted include... Arlington...Rockville...Gaithersburg...Bowie...College Park... Greenbelt...Fairfax...Vienna...Falls Church...Bladensburg...La Plata...Upper Marlboro...Forestville in Prince Georges County... Pimmit Hills...Clinton...Olney...Bethesda...rfk stadium...fedex field and Langley Park. Lat...Lon 3941 7671 3823 7673 3844 7702 3836 7720 3834 7720 3837 7714 3840 7705 3840 7704 3814 7708 3824 7731 3838 7731 3835 7721 3852 7726 3875 7701 3889 7704 3890 7706 3873 7704 3866 7724 3850 7730 3922 7730 time...Mot...loc 0505z 255deg 33kt 3916 7728 3803 7728

×

10-Day Weather Forecast

Almanac

Astronomy

Mar. 30, 2015 Rise Set
Actual Time
Civil Twilight
Nautical Twilight
Astronomical Twilight
Moon
Length of Visible Light
Length of Day
Tomorrow will be .
, % of the Moon is Illuminated

Today's Extremes

State Highs State Lows

Community

WunderPhotos

Upload Photos

1,809,437 photos uploaded!

WunderBlogs® & News

Nearby

Air Quality

  Air Quality AQ Index Pollutant
Not available.

Snow Depth

Station Depth Elevation

Earthquake Activity

City Distance Mag. Time & Date
Minimum magnitude displayed is 2.5.

Coastal Water Temperatures

Place Temperature

Stations

Nearby Weather Stations

Station Location Temp. Windchill Dew Point Humidity Wind Precip. Elev Updated Type